createdAt,value
2019-03-08T00:00:38.359Z,0.00
2019-03-08T00:01:38.312Z,0.00
2019-03-08T00:02:38.284Z,0.00
2019-03-08T00:03:38.268Z,0.00
2019-03-08T00:04:38.243Z,0.00
2019-03-08T00:05:38.231Z,0.00
2019-03-08T00:06:38.219Z,0.00
2019-03-08T00:07:38.186Z,0.00
2019-03-08T00:08:38.176Z,0.00
2019-03-08T00:09:39.920Z,0.00
2019-03-08T00:10:38.156Z,0.00
2019-03-08T00:11:38.128Z,0.00
2019-03-08T00:12:38.079Z,0.00
2019-03-08T00:13:38.063Z,0.00
2019-03-08T00:14:38.038Z,0.00
2019-03-08T00:15:38.020Z,0.00
2019-03-08T00:16:38.005Z,0.00
2019-03-08T00:17:38.000Z,0.00
2019-03-08T00:18:37.978Z,0.00
2019-03-08T00:19:37.937Z,0.00
2019-03-08T00:20:37.915Z,0.00
2019-03-08T00:21:38.421Z,0.00
2019-03-08T00:22:37.888Z,0.00
2019-03-08T00:23:37.853Z,0.00
2019-03-08T00:24:37.842Z,0.00
2019-03-08T00:25:37.813Z,0.00
2019-03-08T00:26:37.789Z,0.00
2019-03-08T00:27:37.788Z,0.00
2019-03-08T00:28:37.753Z,0.00
2019-03-08T00:29:37.728Z,0.00
2019-03-08T00:30:37.709Z,0.00
2019-03-08T00:31:37.691Z,0.00
2019-03-08T00:32:37.687Z,0.00
2019-03-08T00:33:37.644Z,0.00
2019-03-08T00:34:37.621Z,0.00
2019-03-08T00:35:37.640Z,0.00
2019-03-08T00:36:37.584Z,0.00
2019-03-08T00:37:37.566Z,0.00
2019-03-08T00:38:37.548Z,0.00
2019-03-08T00:39:37.518Z,0.00
2019-03-08T00:40:37.503Z,0.00
2019-03-08T00:41:37.499Z,0.00
2019-03-08T00:42:37.462Z,0.00
2019-03-08T00:43:37.446Z,0.00
2019-03-08T00:44:37.419Z,0.00
2019-03-08T00:45:37.395Z,0.00
2019-03-08T00:46:37.378Z,0.00
2019-03-08T00:47:37.381Z,0.00
2019-03-08T00:48:37.332Z,0.00
2019-03-08T00:49:37.310Z,0.00
2019-03-08T00:50:37.294Z,0.00
2019-03-08T00:51:37.275Z,0.00
2019-03-08T00:52:37.244Z,0.00
2019-03-08T00:53:37.247Z,0.00
2019-03-08T00:54:37.211Z,0.00
2019-03-08T00:55:37.187Z,0.00
2019-03-08T00:56:37.190Z,0.00
2019-03-08T00:57:37.154Z,0.00
2019-03-08T00:58:37.123Z,0.00
2019-03-08T00:59:37.118Z,0.00
2019-03-08T01:00:37.089Z,0.00
2019-03-08T01:01:37.064Z,0.00
2019-03-08T01:02:37.042Z,0.00
2019-03-08T01:03:37.022Z,0.00
2019-03-08T01:04:37.023Z,0.00
2019-03-08T01:05:36.985Z,0.00
2019-03-08T01:06:36.961Z,0.00
2019-03-08T01:07:36.938Z,0.00
2019-03-08T01:08:36.979Z,0.00
2019-03-08T01:09:36.900Z,0.00
2019-03-08T01:10:36.915Z,0.00
2019-03-08T01:11:36.882Z,0.00
2019-03-08T01:12:36.835Z,0.00
2019-03-08T01:13:36.816Z,0.00
2019-03-08T01:14:36.807Z,0.00
2019-03-08T01:15:36.771Z,0.00
2019-03-08T01:16:36.751Z,0.00
2019-03-08T01:17:36.731Z,0.00
2019-03-08T01:18:36.725Z,0.00
2019-03-08T01:19:36.690Z,0.00
2019-03-08T01:20:36.670Z,0.00
2019-03-08T01:21:36.643Z,0.00
2019-03-08T01:22:36.634Z,0.00
2019-03-08T01:23:36.606Z,0.00
2019-03-08T01:24:36.599Z,0.00
2019-03-08T01:25:36.580Z,0.00
2019-03-08T01:26:36.538Z,0.00
2019-03-08T01:27:36.523Z,0.00
2019-03-08T01:28:36.502Z,0.00
2019-03-08T01:29:36.500Z,0.00
2019-03-08T01:30:36.459Z,0.00
2019-03-08T01:31:36.442Z,0.00
2019-03-08T01:32:36.435Z,0.00
2019-03-08T01:33:36.409Z,0.00
2019-03-08T01:34:36.378Z,0.00
2019-03-08T01:35:36.353Z,0.00
2019-03-08T01:36:36.330Z,0.00
2019-03-08T01:37:36.312Z,0.00
2019-03-08T01:38:36.305Z,0.00
2019-03-08T01:39:36.277Z,0.00
2019-03-08T01:40:36.252Z,0.00
2019-03-08T01:41:36.264Z,0.00
2019-03-08T01:42:36.212Z,0.00
2019-03-08T01:43:36.188Z,0.00
2019-03-08T01:44:36.179Z,0.00
2019-03-08T01:45:36.193Z,0.00
2019-03-08T01:46:36.128Z,0.00
2019-03-08T01:47:36.125Z,0.00
2019-03-08T01:48:36.088Z,0.00
2019-03-08T01:49:36.065Z,0.00
2019-03-08T01:50:36.043Z,0.00
2019-03-08T01:51:36.028Z,0.00
2019-03-08T01:52:36.023Z,0.00
2019-03-08T01:53:35.982Z,0.00
2019-03-08T01:54:35.963Z,0.00
2019-03-08T01:55:35.938Z,0.00
2019-03-08T01:56:36.018Z,0.00
2019-03-08T01:57:35.916Z,0.00
2019-03-08T01:58:35.907Z,0.00
2019-03-08T01:59:35.860Z,0.00
2019-03-08T02:00:35.924Z,0.00
2019-03-08T02:01:35.813Z,0.00
2019-03-08T02:02:35.793Z,0.00
2019-03-08T02:03:35.776Z,0.00
2019-03-08T02:04:35.781Z,0.00
2019-03-08T02:05:35.729Z,0.00
2019-03-08T02:06:35.708Z,0.00
2019-03-08T02:07:35.693Z,0.00
2019-03-08T02:08:35.667Z,0.00
2019-03-08T02:09:35.653Z,0.00
2019-03-08T02:10:35.641Z,0.00
2019-03-08T02:11:35.599Z,0.00
2019-03-08T02:12:35.583Z,0.00
2019-03-08T02:13:35.562Z,0.00
2019-03-08T02:14:35.562Z,0.00
2019-03-08T02:15:35.516Z,0.00
2019-03-08T02:16:35.498Z,0.00
2019-03-08T02:17:35.478Z,0.00
2019-03-08T02:18:35.456Z,0.00
2019-03-08T02:19:35.439Z,0.00
2019-03-08T02:20:35.440Z,0.00
2019-03-08T02:21:35.394Z,0.00
2019-03-08T02:22:35.373Z,0.00
2019-03-08T02:23:35.366Z,0.00
2019-03-08T02:24:35.333Z,0.00
2019-03-08T02:25:35.306Z,0.00
2019-03-08T02:26:35.304Z,0.00
2019-03-08T02:27:35.265Z,0.00
2019-03-08T02:28:35.248Z,0.00
2019-03-08T02:29:35.225Z,0.00
2019-03-08T02:30:35.208Z,0.00
2019-03-08T02:31:35.198Z,0.00
2019-03-08T02:32:35.174Z,0.00
2019-03-08T02:33:35.138Z,0.00
2019-03-08T02:34:35.121Z,0.00
2019-03-08T02:35:35.098Z,0.00
2019-03-08T02:36:35.074Z,0.00
2019-03-08T02:37:35.057Z,0.00
2019-03-08T02:38:35.050Z,0.00
2019-03-08T02:39:35.018Z,0.00
2019-03-08T02:40:34.991Z,0.00
2019-03-08T02:41:34.971Z,0.00
2019-03-08T02:42:34.948Z,0.00
2019-03-08T02:43:34.944Z,0.00
2019-03-08T02:44:34.909Z,0.00
2019-03-08T02:45:34.895Z,0.00
2019-03-08T02:46:34.867Z,0.00
2019-03-08T02:47:34.844Z,0.00
2019-03-08T02:48:34.837Z,0.00
2019-03-08T02:49:34.803Z,0.00
2019-03-08T02:50:34.792Z,0.00
2019-03-08T02:51:34.791Z,0.00
2019-03-08T02:52:34.745Z,0.00
2019-03-08T02:53:34.739Z,0.00
2019-03-08T02:54:34.701Z,0.00
2019-03-08T02:55:34.709Z,0.00
2019-03-08T02:56:34.657Z,0.00
2019-03-08T02:57:34.641Z,0.00
2019-03-08T02:58:34.623Z,0.00
2019-03-08T02:59:34.592Z,0.00
2019-03-08T03:00:34.572Z,0.00
2019-03-08T03:01:34.565Z,0.00
2019-03-08T03:02:34.527Z,0.00
2019-03-08T03:03:34.526Z,0.00
2019-03-08T03:04:34.495Z,0.00
2019-03-08T03:05:34.468Z,0.00
2019-03-08T03:06:34.464Z,0.00
2019-03-08T03:07:34.422Z,0.00
2019-03-08T03:08:34.409Z,0.00
2019-03-08T03:09:34.381Z,0.00
2019-03-08T03:10:34.389Z,0.00
2019-03-08T03:11:34.339Z,0.00
2019-03-08T03:12:34.332Z,0.00
2019-03-08T03:13:34.296Z,0.00
2019-03-08T03:14:34.278Z,0.00
2019-03-08T03:15:34.258Z,0.00
2019-03-08T03:16:34.245Z,0.00
2019-03-08T03:17:34.218Z,0.00
2019-03-08T03:18:34.186Z,0.00
2019-03-08T03:19:34.168Z,0.00
2019-03-08T03:20:34.150Z,0.00
2019-03-08T03:21:34.139Z,0.00
2019-03-08T03:22:34.099Z,0.00
2019-03-08T03:23:34.081Z,0.00
2019-03-08T03:24:34.062Z,0.00
2019-03-08T03:25:34.040Z,0.00
2019-03-08T03:26:34.021Z,0.00
2019-03-08T03:27:34.016Z,0.00
2019-03-08T03:28:33.980Z,0.00
2019-03-08T03:29:33.958Z,0.00
2019-03-08T03:30:33.939Z,0.00
2019-03-08T03:31:33.933Z,0.00
2019-03-08T03:32:33.912Z,0.00
2019-03-08T03:33:33.874Z,0.00
2019-03-08T03:34:33.851Z,0.00
2019-03-08T03:35:33.836Z,0.00
2019-03-08T03:36:33.814Z,0.00
2019-03-08T03:37:33.785Z,0.00
2019-03-08T03:38:33.786Z,0.00
2019-03-08T03:39:33.758Z,0.00
2019-03-08T03:40:33.723Z,0.00
2019-03-08T03:41:33.724Z,0.00
2019-03-08T03:42:33.693Z,0.00
2019-03-08T03:43:33.663Z,0.00
2019-03-08T03:44:33.651Z,0.00
2019-03-08T03:45:33.624Z,0.00
2019-03-08T03:46:33.597Z,0.00
2019-03-08T03:47:33.576Z,0.00
2019-03-08T03:48:33.554Z,0.00
2019-03-08T03:49:34.492Z,0.00
2019-03-08T03:50:33.521Z,0.00
2019-03-08T03:51:33.490Z,0.00
2019-03-08T03:52:33.467Z,0.00
2019-03-08T03:53:33.445Z,0.00
2019-03-08T03:54:33.426Z,0.00
2019-03-08T03:55:33.428Z,0.00
2019-03-08T03:56:33.388Z,0.00
2019-03-08T03:57:33.469Z,0.00
2019-03-08T03:58:33.339Z,0.00
2019-03-08T03:59:33.319Z,0.00
2019-03-08T04:00:33.311Z,0.00
2019-03-08T04:01:33.298Z,0.00
2019-03-08T04:02:33.253Z,0.00
2019-03-08T04:03:33.951Z,0.00
2019-03-08T04:04:33.210Z,0.00
2019-03-08T04:05:33.367Z,0.00
2019-03-08T04:06:33.170Z,0.00
2019-03-08T04:07:33.170Z,0.00
2019-03-08T04:08:33.126Z,0.00
2019-03-08T04:09:33.103Z,0.00
2019-03-08T04:10:33.086Z,0.00
2019-03-08T04:11:33.072Z,0.00
2019-03-08T04:12:33.057Z,0.00
2019-03-08T04:13:33.038Z,0.00
2019-03-08T04:14:32.995Z,0.00
2019-03-08T04:15:32.976Z,0.00
2019-03-08T04:16:32.951Z,0.00
2019-03-08T04:17:32.931Z,0.00
2019-03-08T04:18:32.907Z,0.00
2019-03-08T04:19:32.920Z,0.00
2019-03-08T04:20:32.864Z,0.00
2019-03-08T04:21:32.855Z,0.00
2019-03-08T04:22:32.825Z,0.00
2019-03-08T04:23:32.823Z,0.00
2019-03-08T04:24:32.782Z,0.00
2019-03-08T04:25:32.763Z,0.00
2019-03-08T04:26:32.743Z,0.00
2019-03-08T04:27:32.722Z,0.00
2019-03-08T04:28:32.702Z,0.00
2019-03-08T04:29:32.692Z,0.00
2019-03-08T04:30:32.669Z,0.00
2019-03-08T04:31:32.630Z,0.00
2019-03-08T04:32:32.611Z,0.00
2019-03-08T04:33:32.588Z,0.00
2019-03-08T04:34:32.570Z,0.00
2019-03-08T04:35:32.550Z,0.00
2019-03-08T04:36:32.537Z,0.00
2019-03-08T04:37:32.504Z,0.00
2019-03-08T04:38:32.485Z,0.00
2019-03-08T04:39:32.464Z,0.00
2019-03-08T04:40:32.459Z,0.00
2019-03-08T04:41:32.422Z,0.00
2019-03-08T04:42:32.398Z,0.00
2019-03-08T04:43:32.376Z,0.00
2019-03-08T04:44:32.358Z,0.00
2019-03-08T04:45:32.332Z,0.00
2019-03-08T04:46:32.332Z,0.00
2019-03-08T04:47:32.290Z,0.00
2019-03-08T04:48:32.269Z,0.00
2019-03-08T04:49:32.249Z,0.00
2019-03-08T04:50:32.271Z,0.00
2019-03-08T04:51:32.234Z,0.00
2019-03-08T04:52:32.186Z,0.00
2019-03-08T04:53:32.163Z,0.00
2019-03-08T04:54:32.141Z,0.00
2019-03-08T04:55:32.124Z,0.00
2019-03-08T04:56:32.121Z,0.00
2019-03-08T04:57:32.141Z,0.00
2019-03-08T04:58:32.055Z,0.00
2019-03-08T04:59:32.034Z,0.00
2019-03-08T05:00:32.016Z,0.00
2019-03-08T05:01:31.999Z,0.00
2019-03-08T05:02:31.990Z,0.00
2019-03-08T05:03:31.963Z,0.00
2019-03-08T05:04:31.929Z,0.00
2019-03-08T05:05:31.907Z,0.00
2019-03-08T05:06:31.889Z,0.00
2019-03-08T05:07:31.865Z,0.00
2019-03-08T05:08:31.859Z,0.00
2019-03-08T05:09:31.839Z,0.00
2019-03-08T05:10:31.803Z,0.00
2019-03-08T05:11:31.784Z,0.00
2019-03-08T05:12:31.759Z,0.00
2019-03-08T05:13:31.737Z,0.00
2019-03-08T05:14:31.718Z,0.00
2019-03-08T05:15:31.707Z,0.00
2019-03-08T05:16:31.674Z,0.00
2019-03-08T05:17:31.648Z,0.00
2019-03-08T05:18:33.028Z,0.00
2019-03-08T05:19:31.624Z,0.00
2019-03-08T05:20:31.608Z,0.00
2019-03-08T05:21:31.565Z,0.00
2019-03-08T05:22:31.549Z,0.00
2019-03-08T05:23:31.525Z,0.00
2019-03-08T05:24:31.500Z,0.00
2019-03-08T05:25:31.497Z,0.00
2019-03-08T05:26:31.485Z,0.00
2019-03-08T05:27:31.442Z,0.00
2019-03-08T05:28:31.414Z,0.00
2019-03-08T05:29:31.397Z,0.00
2019-03-08T05:30:31.388Z,0.00
2019-03-08T05:31:31.364Z,0.00
2019-03-08T05:32:31.343Z,0.00
2019-03-08T05:33:31.313Z,0.00
2019-03-08T05:34:31.290Z,0.00
2019-03-08T05:35:31.297Z,0.00
2019-03-08T05:36:31.265Z,0.00
2019-03-08T05:37:31.228Z,0.00
2019-03-08T05:38:31.207Z,4.00
2019-03-08T05:39:31.185Z,0.00
2019-03-08T05:40:31.159Z,0.00
2019-03-08T05:41:31.156Z,4.00
2019-03-08T05:42:31.118Z,4.00
2019-03-08T05:43:31.096Z,4.00
2019-03-08T05:44:31.086Z,4.00
2019-03-08T05:45:31.083Z,8.00
2019-03-08T05:46:31.030Z,8.00
2019-03-08T05:47:31.011Z,12.00
2019-03-08T05:48:30.988Z,12.00
2019-03-08T05:49:30.969Z,16.00
2019-03-08T05:50:30.946Z,16.00
2019-03-08T05:51:30.939Z,20.00
2019-03-08T05:52:30.905Z,24.00
2019-03-08T05:53:30.897Z,28.00
2019-03-08T05:54:30.861Z,32.00
2019-03-08T05:55:30.839Z,32.00
2019-03-08T05:56:30.822Z,36.00
2019-03-08T05:57:30.797Z,40.00
2019-03-08T05:58:30.896Z,44.00
2019-03-08T05:59:30.756Z,52.00
2019-03-08T06:00:32.873Z,60.00
2019-03-08T06:01:30.719Z,64.00
2019-03-08T06:02:30.693Z,80.00
2019-03-08T06:03:30.675Z,88.00
2019-03-08T06:04:30.663Z,100.00
2019-03-08T06:05:30.626Z,108.00
2019-03-08T06:06:30.611Z,120.00
2019-03-08T06:07:30.585Z,128.00
2019-03-08T06:08:30.579Z,136.00
2019-03-08T06:09:30.539Z,152.00
2019-03-08T06:10:30.540Z,160.00
2019-03-08T06:11:30.499Z,168.00
2019-03-08T06:12:30.474Z,184.00
2019-03-08T06:13:30.472Z,192.00
2019-03-08T06:14:30.436Z,220.00
2019-03-08T06:15:30.416Z,224.00
2019-03-08T06:16:30.408Z,244.00
2019-03-08T06:17:30.377Z,252.00
2019-03-08T06:18:30.358Z,260.00
2019-03-08T06:19:30.331Z,280.00
2019-03-08T06:20:30.328Z,320.00
2019-03-08T06:21:30.307Z,336.00
2019-03-08T06:22:30.270Z,356.00
2019-03-08T06:23:30.251Z,384.00
2019-03-08T06:24:30.226Z,384.00
2019-03-08T06:25:30.204Z,404.00
2019-03-08T06:26:30.182Z,424.00
2019-03-08T06:27:30.175Z,440.00
2019-03-08T06:28:30.134Z,472.00
2019-03-08T06:29:30.139Z,484.00
2019-03-08T06:30:30.102Z,480.00
2019-03-08T06:31:30.080Z,516.00
2019-03-08T06:32:30.068Z,560.00
2019-03-08T06:33:30.031Z,592.00
2019-03-08T06:34:30.012Z,648.00
2019-03-08T06:35:29.988Z,676.00
2019-03-08T06:36:29.968Z,692.00
2019-03-08T06:37:29.944Z,620.00
2019-03-08T06:38:29.941Z,620.00
2019-03-08T06:39:29.908Z,648.00
2019-03-08T06:40:29.895Z,700.00
2019-03-08T06:41:29.861Z,724.00
2019-03-08T06:42:29.876Z,720.00
2019-03-08T06:43:29.823Z,780.00
2019-03-08T06:44:29.798Z,876.00
2019-03-08T06:45:29.774Z,948.00
2019-03-08T06:46:29.753Z,952.00
2019-03-08T06:47:29.731Z,928.00
2019-03-08T06:48:29.731Z,916.00
2019-03-08T06:49:29.692Z,900.00
2019-03-08T06:50:29.666Z,908.00
2019-03-08T06:51:29.647Z,932.00
2019-03-08T06:52:29.629Z,992.00
2019-03-08T06:53:29.604Z,1012.00
2019-03-08T06:54:29.603Z,980.00
2019-03-08T06:55:29.569Z,988.00
2019-03-08T06:56:29.547Z,1092.00
2019-03-08T06:57:29.526Z,1168.00
2019-03-08T06:58:29.503Z,1216.00
2019-03-08T06:59:29.478Z,1216.00
2019-03-08T07:00:29.477Z,1252.00
2019-03-08T07:01:29.435Z,1244.00
2019-03-08T07:02:30.253Z,1148.00
2019-03-08T07:03:29.393Z,1140.00
2019-03-08T07:04:29.382Z,1136.00
2019-03-08T07:05:29.365Z,1132.00
2019-03-08T07:06:29.347Z,1104.00
2019-03-08T07:07:29.308Z,1012.00
2019-03-08T07:08:29.286Z,892.00
2019-03-08T07:09:29.261Z,824.00
2019-03-08T07:10:29.239Z,812.00
2019-03-08T07:11:29.240Z,800.00
2019-03-08T07:12:29.203Z,792.00
2019-03-08T07:13:29.193Z,808.00
2019-03-08T07:14:29.161Z,836.00
2019-03-08T07:15:29.140Z,864.00
2019-03-08T07:16:29.134Z,892.00
2019-03-08T07:17:29.095Z,904.00
2019-03-08T07:18:29.084Z,948.00
2019-03-08T07:19:29.057Z,944.00
2019-03-08T07:20:29.031Z,928.00
2019-03-08T07:21:29.014Z,924.00
2019-03-08T07:22:29.014Z,912.00
2019-03-08T07:23:28.966Z,860.00
2019-03-08T07:24:28.975Z,928.00
2019-03-08T07:25:28.928Z,1032.00
2019-03-08T07:26:28.911Z,1088.00
2019-03-08T07:27:28.905Z,1136.00
2019-03-08T07:28:28.866Z,1164.00
2019-03-08T07:29:28.861Z,1140.00
2019-03-08T07:30:28.823Z,1120.00
2019-03-08T07:31:28.813Z,1052.00
2019-03-08T07:32:28.789Z,1036.00
2019-03-08T07:33:28.779Z,1092.00
2019-03-08T07:34:28.744Z,1156.00
2019-03-08T07:35:28.724Z,1212.00
2019-03-08T07:36:28.692Z,1156.00
2019-03-08T07:37:28.677Z,1136.00
2019-03-08T07:38:28.659Z,1092.00
2019-03-08T07:39:28.659Z,1024.00
2019-03-08T07:40:28.612Z,1040.00
2019-03-08T07:41:29.004Z,1224.00
2019-03-08T07:42:28.569Z,1392.00
2019-03-08T07:43:28.557Z,1472.00
2019-03-08T07:44:28.553Z,1572.00
2019-03-08T07:45:28.522Z,1728.00
2019-03-08T07:46:28.485Z,1640.00
2019-03-08T07:47:28.474Z,1736.00
2019-03-08T07:48:28.454Z,1852.00
2019-03-08T07:49:28.446Z,1672.00
2019-03-08T07:50:28.409Z,1708.00
2019-03-08T07:51:28.389Z,1760.00
2019-03-08T07:52:28.368Z,1912.00
2019-03-08T07:53:28.350Z,2000.00
2019-03-08T07:54:28.323Z,2244.00
2019-03-08T07:55:28.313Z,2320.00
2019-03-08T07:56:28.290Z,2272.00
2019-03-08T07:57:28.256Z,2180.00
2019-03-08T07:58:28.234Z,2240.00
2019-03-08T07:59:28.217Z,2236.00
2019-03-08T08:00:28.215Z,1940.00
2019-03-08T08:01:28.197Z,2076.00
2019-03-08T08:02:28.160Z,2236.00
2019-03-08T08:03:28.130Z,1796.00
2019-03-08T08:04:28.108Z,1508.00
2019-03-08T08:05:28.089Z,1484.00
2019-03-08T08:06:28.067Z,1720.00
2019-03-08T08:07:28.062Z,1916.00
2019-03-08T08:08:28.033Z,1936.00
2019-03-08T08:09:27.996Z,2368.00
2019-03-08T08:10:27.985Z,2600.00
2019-03-08T08:11:27.963Z,3240.00
2019-03-08T08:12:27.945Z,3792.00
2019-03-08T08:13:27.948Z,4520.00
2019-03-08T08:14:27.904Z,4684.00
2019-03-08T08:15:27.880Z,4952.00
2019-03-08T08:16:27.854Z,5592.00
2019-03-08T08:17:27.842Z,5740.00
2019-03-08T08:18:27.814Z,6336.00
2019-03-08T08:19:27.823Z,5988.00
2019-03-08T08:20:27.774Z,5352.00
2019-03-08T08:21:27.754Z,4944.00
2019-03-08T08:22:27.747Z,3960.00
2019-03-08T08:23:34.098Z,4488.00
2019-03-08T08:24:27.689Z,5124.00
2019-03-08T08:25:36.289Z,5304.00
2019-03-08T08:26:27.668Z,5304.00
2019-03-08T08:27:27.638Z,5008.00
2019-03-08T08:28:27.720Z,4848.00
2019-03-08T08:29:34.730Z,4512.00
2019-03-08T08:30:27.617Z,3884.00
2019-03-08T08:31:27.551Z,3116.00
2019-03-08T08:32:27.530Z,2516.00
2019-03-08T08:33:27.510Z,2308.00
2019-03-08T08:34:27.492Z,2304.00
2019-03-08T08:35:27.505Z,2416.00
2019-03-08T08:36:27.467Z,2320.00
2019-03-08T08:37:27.430Z,2188.00
2019-03-08T08:38:27.411Z,2104.00
2019-03-08T08:39:27.394Z,2120.00
2019-03-08T08:40:27.386Z,2088.00
2019-03-08T08:41:27.372Z,2080.00
2019-03-08T08:42:27.328Z,2100.00
2019-03-08T08:43:27.306Z,2140.00
2019-03-08T08:44:27.287Z,2192.00
2019-03-08T08:45:27.274Z,2192.00
2019-03-08T08:46:27.250Z,2168.00
2019-03-08T08:47:27.248Z,2224.00
2019-03-08T08:48:27.204Z,2168.00
2019-03-08T08:49:27.184Z,2116.00
2019-03-08T08:50:27.167Z,2204.00
2019-03-08T08:51:27.146Z,2276.00
2019-03-08T08:52:27.135Z,2372.00
2019-03-08T08:53:27.155Z,2356.00
2019-03-08T08:54:27.081Z,2400.00
2019-03-08T08:55:27.064Z,2508.00
2019-03-08T08:56:27.046Z,2524.00
2019-03-08T08:57:27.021Z,2660.00
2019-03-08T08:58:27.067Z,2708.00
2019-03-08T08:59:26.984Z,2672.00
2019-03-08T09:00:26.962Z,2584.00
2019-03-08T09:01:26.954Z,2740.00
2019-03-08T09:02:26.923Z,3040.00
2019-03-08T09:03:26.904Z,3696.00
2019-03-08T09:04:26.894Z,4232.00
2019-03-08T09:05:26.853Z,5372.00
2019-03-08T09:06:26.840Z,5952.00
2019-03-08T09:07:26.816Z,5840.00
2019-03-08T09:08:26.830Z,5316.00
2019-03-08T09:09:26.778Z,5540.00
2019-03-08T09:10:26.776Z,5912.00
2019-03-08T09:11:26.737Z,4840.00
2019-03-08T09:12:26.716Z,5016.00
2019-03-08T09:13:26.703Z,3776.00
2019-03-08T09:14:26.685Z,3380.00
2019-03-08T09:15:26.658Z,2972.00
2019-03-08T09:16:26.649Z,3736.00
2019-03-08T09:17:26.616Z,6288.00
2019-03-08T09:18:26.618Z,5968.00
2019-03-08T09:19:26.587Z,5828.00
2019-03-08T09:20:26.558Z,5952.00
2019-03-08T09:21:26.533Z,5988.00
2019-03-08T09:22:26.517Z,5932.00
2019-03-08T09:23:26.499Z,7252.00
2019-03-08T09:24:26.497Z,6552.00
2019-03-08T09:25:26.458Z,6032.00
2019-03-08T09:26:26.440Z,7268.00
2019-03-08T09:27:26.420Z,7744.00
2019-03-08T09:28:26.424Z,7656.00
2019-03-08T09:29:26.386Z,6484.00
2019-03-08T09:30:26.362Z,6096.00
2019-03-08T09:31:26.336Z,5212.00
2019-03-08T09:32:26.333Z,4864.00
2019-03-08T09:33:26.327Z,6000.00
2019-03-08T09:34:26.304Z,7160.00
2019-03-08T09:35:26.267Z,5516.00
2019-03-08T09:36:26.247Z,4048.00
2019-03-08T09:37:26.227Z,3936.00
2019-03-08T09:38:26.208Z,2892.00
2019-03-08T09:39:26.202Z,2064.00
2019-03-08T09:40:26.167Z,2284.00
2019-03-08T09:41:26.170Z,3248.00
2019-03-08T09:42:26.132Z,3588.00
2019-03-08T09:43:26.115Z,3280.00
2019-03-08T09:44:26.089Z,3204.00
2019-03-08T09:45:26.067Z,4388.00
2019-03-08T09:46:26.071Z,5656.00
2019-03-08T09:47:26.032Z,7072.00
2019-03-08T09:48:26.024Z,6248.00
2019-03-08T09:49:25.994Z,5252.00
2019-03-08T09:50:25.969Z,5084.00
2019-03-08T09:51:25.975Z,5148.00
2019-03-08T09:52:26.569Z,5704.00
2019-03-08T09:53:25.915Z,6424.00
2019-03-08T09:54:25.900Z,6832.00
2019-03-08T09:55:25.880Z,6848.00
2019-03-08T09:56:25.863Z,6968.00
2019-03-08T09:57:25.863Z,6704.00
2019-03-08T09:58:25.994Z,6152.00
2019-03-08T09:59:27.411Z,5764.00
2019-03-08T10:00:25.945Z,5120.00
2019-03-08T10:01:25.757Z,5012.00
2019-03-08T10:02:25.763Z,5496.00
2019-03-08T10:03:25.726Z,6852.00
2019-03-08T10:04:25.707Z,8080.00
2019-03-08T10:05:25.686Z,9864.00
2019-03-08T10:06:25.698Z,6980.00
2019-03-08T10:07:25.650Z,6244.00
2019-03-08T10:08:25.824Z,5580.00
2019-03-08T10:09:25.602Z,6696.00
2019-03-08T10:10:25.691Z,9104.00
2019-03-08T10:11:25.570Z,9752.00
2019-03-08T10:12:25.545Z,9852.00
2019-03-08T10:13:25.532Z,10000.00
2019-03-08T10:14:25.571Z,9272.00
2019-03-08T10:15:25.501Z,7316.00
2019-03-08T10:16:25.618Z,6268.00
2019-03-08T10:17:25.467Z,5640.00
2019-03-08T10:18:25.435Z,5616.00
2019-03-08T10:19:25.419Z,5964.00
2019-03-08T10:20:25.416Z,6608.00
2019-03-08T10:21:25.380Z,7732.00
2019-03-08T10:22:25.361Z,7380.00
2019-03-08T10:23:25.343Z,6820.00
2019-03-08T10:24:25.324Z,7008.00
2019-03-08T10:25:25.320Z,6844.00
2019-03-08T10:26:25.290Z,5348.00
2019-03-08T10:27:25.277Z,4428.00
2019-03-08T10:28:25.248Z,4684.00
2019-03-08T10:29:25.221Z,6088.00
2019-03-08T10:30:25.256Z,8020.00
2019-03-08T10:31:25.187Z,7712.00
2019-03-08T10:32:25.175Z,7656.00
2019-03-08T10:33:25.149Z,7124.00
2019-03-08T10:34:25.151Z,6440.00
2019-03-08T10:35:25.117Z,6252.00
2019-03-08T10:36:25.108Z,7456.00
2019-03-08T10:37:25.072Z,8084.00
2019-03-08T10:38:25.062Z,7780.00
2019-03-08T10:39:25.037Z,7648.00
2019-03-08T10:40:25.009Z,8768.00
2019-03-08T10:41:25.015Z,9856.00
2019-03-08T10:42:24.989Z,15712.00
2019-03-08T10:43:24.959Z,10164.00
2019-03-08T10:44:24.938Z,9184.00
2019-03-08T10:45:24.919Z,10292.00
2019-03-08T10:46:24.927Z,10244.00
2019-03-08T10:47:24.884Z,10492.00
2019-03-08T10:48:24.871Z,10212.00
2019-03-08T10:49:24.858Z,11764.00
2019-03-08T10:50:24.822Z,9240.00
2019-03-08T10:51:24.806Z,9056.00
2019-03-08T10:52:24.806Z,8816.00
2019-03-08T10:53:24.770Z,7268.00
2019-03-08T10:54:24.780Z,6652.00
2019-03-08T10:55:24.735Z,6280.00
2019-03-08T10:56:24.716Z,5564.00
2019-03-08T10:57:24.699Z,4756.00
2019-03-08T10:58:24.683Z,4708.00
2019-03-08T10:59:24.666Z,5168.00
2019-03-08T11:00:24.660Z,5624.00
2019-03-08T11:01:24.627Z,5220.00
2019-03-08T11:02:24.616Z,7352.00
2019-03-08T11:03:24.602Z,6304.00
2019-03-08T11:04:24.571Z,5196.00
2019-03-08T11:05:24.567Z,3544.00
2019-03-08T11:06:24.551Z,2768.00
2019-03-08T11:07:24.516Z,3196.00
2019-03-08T11:08:29.744Z,3684.00
2019-03-08T11:09:24.485Z,4396.00
2019-03-08T11:10:24.476Z,2916.00
2019-03-08T11:11:24.458Z,2716.00
2019-03-08T11:12:24.439Z,3016.00
2019-03-08T11:13:24.399Z,3980.00
2019-03-08T11:14:24.386Z,4308.00
2019-03-08T11:15:24.952Z,5884.00
2019-03-08T11:16:25.015Z,16480.00
2019-03-08T11:17:24.345Z,14112.00
2019-03-08T11:18:24.314Z,15936.00
2019-03-08T11:19:24.283Z,15840.00
2019-03-08T11:20:24.267Z,15392.00
2019-03-08T11:21:24.248Z,14272.00
2019-03-08T11:22:24.251Z,11312.00
2019-03-08T11:23:24.213Z,12580.00
2019-03-08T11:24:24.192Z,13856.00
2019-03-08T11:25:24.189Z,15104.00
2019-03-08T11:26:24.172Z,16544.00
2019-03-08T11:27:24.163Z,9220.00
2019-03-08T11:28:24.123Z,15872.00
2019-03-08T11:29:24.127Z,12608.00
2019-03-08T11:30:24.097Z,11344.00
2019-03-08T11:31:24.079Z,11444.00
2019-03-08T11:32:24.087Z,12488.00
2019-03-08T11:33:24.047Z,4080.00
2019-03-08T11:34:25.460Z,3100.00
2019-03-08T11:35:24.021Z,3524.00
2019-03-08T11:36:24.001Z,3296.00
2019-03-08T11:37:23.985Z,2924.00
2019-03-08T11:38:23.964Z,3048.00
2019-03-08T11:39:23.974Z,4152.00
2019-03-08T11:40:23.935Z,9408.00
2019-03-08T11:41:23.915Z,15360.00
2019-03-08T11:42:23.903Z,16576.00
2019-03-08T11:43:23.882Z,18400.00
2019-03-08T11:44:23.889Z,18944.00
2019-03-08T11:45:23.867Z,7336.00
2019-03-08T11:46:23.837Z,7340.00
2019-03-08T11:47:23.823Z,7808.00
2019-03-08T11:48:23.819Z,15456.00
2019-03-08T11:49:23.790Z,5312.00
2019-03-08T11:50:23.776Z,4276.00
2019-03-08T11:51:23.795Z,11972.00
2019-03-08T11:52:23.747Z,11948.00
2019-03-08T11:53:23.730Z,14528.00
2019-03-08T11:54:23.727Z,14976.00
2019-03-08T11:55:23.686Z,14912.00
2019-03-08T11:56:23.689Z,15040.00
2019-03-08T11:57:23.674Z,14912.00
2019-03-08T11:58:23.657Z,7136.00
2019-03-08T11:59:23.632Z,15584.00
2019-03-08T12:00:23.612Z,14912.00
2019-03-08T12:01:23.596Z,11964.00
2019-03-08T12:02:23.599Z,6804.00
2019-03-08T12:03:23.568Z,5380.00
2019-03-08T12:04:23.548Z,5140.00
2019-03-08T12:05:23.537Z,5128.00
2019-03-08T12:06:23.522Z,4608.00
2019-03-08T12:07:23.526Z,12948.00
2019-03-08T12:08:23.486Z,14176.00
2019-03-08T12:09:23.479Z,16672.00
2019-03-08T12:10:23.459Z,16544.00
2019-03-08T12:11:23.467Z,11400.00
2019-03-08T12:12:23.424Z,17472.00
2019-03-08T12:13:23.641Z,15872.00
2019-03-08T12:14:23.397Z,17088.00
2019-03-08T12:15:23.433Z,17216.00
2019-03-08T12:16:23.375Z,16960.00
2019-03-08T12:17:23.352Z,14688.00
2019-03-08T12:18:23.343Z,12240.00
2019-03-08T12:19:23.332Z,17824.00
2019-03-08T12:20:23.319Z,5008.00
2019-03-08T12:21:23.319Z,3752.00
2019-03-08T12:22:23.284Z,3640.00
2019-03-08T12:23:23.279Z,3884.00
2019-03-08T12:24:23.304Z,3488.00
2019-03-08T12:25:23.243Z,11968.00
2019-03-08T12:26:23.277Z,13632.00
2019-03-08T12:27:23.225Z,14912.00
2019-03-08T12:28:23.197Z,14144.00
2019-03-08T12:29:23.187Z,15232.00
2019-03-08T12:30:23.165Z,15936.00
2019-03-08T12:31:23.169Z,16352.00
2019-03-08T12:32:23.599Z,17888.00
2019-03-08T12:33:23.123Z,9720.00
2019-03-08T12:34:23.112Z,8936.00
2019-03-08T12:35:23.102Z,9056.00
2019-03-08T12:36:23.100Z,9616.00
2019-03-08T12:37:23.074Z,8892.00
2019-03-08T12:38:23.064Z,18848.00